createdAt,value
2019-05-25T00:01:55.947Z,14.07
2019-05-25T00:07:29.116Z,14.04
2019-05-25T00:12:31.509Z,14.13
2019-05-25T00:18:09.050Z,14.04
2019-05-25T00:22:54.324Z,13.72
2019-05-25T00:34:58.246Z,13.80
2019-05-25T00:39:54.953Z,13.73
2019-05-25T00:45:02.278Z,13.75
2019-05-25T00:50:09.121Z,13.24
2019-05-25T00:55:16.304Z,13.31
2019-05-25T01:00:23.753Z,13.26
2019-05-25T01:05:35.491Z,13.39
2019-05-25T01:10:39.129Z,13.41
2019-05-25T01:15:36.906Z,13.54
2019-05-25T01:20:32.960Z,13.23
2019-05-25T01:25:35.703Z,13.27
2019-05-25T01:30:37.968Z,13.23
2019-05-25T01:35:47.443Z,13.44
2019-05-25T01:40:48.377Z,13.19
2019-05-25T01:45:44.764Z,13.09
2019-05-25T01:50:42.300Z,13.27
2019-05-25T01:55:40.313Z,13.13
2019-05-25T02:00:36.465Z,13.06
2019-05-25T02:05:32.777Z,12.89
2019-05-25T02:10:30.353Z,13.13
2019-05-25T02:15:26.615Z,13.22
2019-05-25T02:20:24.829Z,13.17
2019-05-25T02:25:22.916Z,13.19
2019-05-25T02:30:33.529Z,13.22
2019-05-25T02:35:31.845Z,13.07
2019-05-25T02:40:29.544Z,12.58
2019-05-25T02:45:28.013Z,12.67
2019-05-25T02:50:24.793Z,12.88
2019-05-25T02:55:33.846Z,12.85
2019-05-25T03:00:35.453Z,12.92
2019-05-25T03:05:34.857Z,12.88
2019-05-25T03:10:32.966Z,12.73
2019-05-25T03:15:29.415Z,12.67
2019-05-25T03:20:25.637Z,12.77
2019-05-25T03:25:22.052Z,12.84
2019-05-25T03:30:25.509Z,12.74
2019-05-25T03:35:24.870Z,12.83
2019-05-25T03:40:21.455Z,12.85
2019-05-25T03:45:21.443Z,12.70
2019-05-25T03:50:18.446Z,12.72
2019-05-25T03:55:14.314Z,13.01
2019-05-25T04:00:10.765Z,12.91
2019-05-25T04:05:07.094Z,13.02
2019-05-25T04:10:03.102Z,13.15
2019-05-25T04:14:58.906Z,13.06
2019-05-25T04:19:54.686Z,13.26
2019-05-25T04:24:50.874Z,13.11
2019-05-25T04:29:46.773Z,13.10
2019-05-25T04:34:42.632Z,13.29
2019-05-25T04:39:42.414Z,13.32
2019-05-25T04:44:38.587Z,13.30
2019-05-25T04:49:34.904Z,13.36
2019-05-25T04:54:36.377Z,13.56
2019-05-25T04:59:32.373Z,13.57
2019-05-25T05:04:28.466Z,13.48
2019-05-25T05:09:27.850Z,13.48
2019-05-25T05:14:31.082Z,13.48
2019-05-25T05:20:32.033Z,13.73
2019-05-25T05:25:33.215Z,13.76
2019-05-25T05:43:07.183Z,14.01
2019-05-25T05:48:32.913Z,13.91
2019-05-25T05:54:30.500Z,13.86
2019-05-25T06:00:16.595Z,13.94
2019-05-25T06:05:12.216Z,13.98
2019-05-25T06:10:11.256Z,13.97
2019-05-25T06:15:08.396Z,13.82
2019-05-25T06:20:05.594Z,14.02
2019-05-25T06:25:02.017Z,14.03
2019-05-25T06:30:01.230Z,14.14
2019-05-25T06:34:58.708Z,14.23
2019-05-25T06:39:57.081Z,14.37
2019-05-25T06:44:59.344Z,14.29
2019-05-25T06:50:13.852Z,14.36
2019-05-25T06:55:17.837Z,14.56
2019-05-25T07:00:21.119Z,14.56
2019-05-25T07:05:19.342Z,14.51
2019-05-25T07:10:41.706Z,14.28
2019-05-25T07:15:39.688Z,14.23
2019-05-25T07:20:56.848Z,14.25
2019-05-25T07:25:48.423Z,14.68
2019-05-25T07:30:46.687Z,14.98
2019-05-25T07:35:43.402Z,15.27
2019-05-25T07:40:39.646Z,15.59
2019-05-25T07:45:35.998Z,15.88
2019-05-25T07:50:32.161Z,15.81
2019-05-25T07:55:28.626Z,16.09
2019-05-25T08:00:25.322Z,16.40
2019-05-25T08:05:21.622Z,16.63
2019-05-25T08:10:18.218Z,16.61
2019-05-25T08:15:15.102Z,16.87
2019-05-25T08:20:11.919Z,17.23
2019-05-25T08:25:08.938Z,17.33
2019-05-25T08:30:06.250Z,17.57
2019-05-25T08:35:02.604Z,18.31
2019-05-25T08:39:58.705Z,18.55
2019-05-25T08:44:54.718Z,19.06
2019-05-25T08:49:51.369Z,19.57
2019-05-25T08:54:47.819Z,20.03
2019-05-25T08:59:43.911Z,20.16
2019-05-25T09:04:39.963Z,20.41
2019-05-25T09:09:35.836Z,20.08
2019-05-25T09:14:32.226Z,20.27
2019-05-25T09:19:28.449Z,20.05
2019-05-25T09:24:24.904Z,19.83
2019-05-25T09:29:21.049Z,20.55
2019-05-25T09:34:20.299Z,20.35
2019-05-25T09:39:16.816Z,19.99
2019-05-25T09:44:14.731Z,19.62
2019-05-25T09:49:11.973Z,20.29
2019-05-25T09:54:09.743Z,21.27
2019-05-25T09:59:19.167Z,21.44
2019-05-25T10:04:14.882Z,21.73
2019-05-25T10:09:26.347Z,21.82
2019-05-25T10:14:21.113Z,21.41
2019-05-25T10:19:52.611Z,21.67
2019-05-25T10:24:51.471Z,21.71
2019-05-25T10:29:49.899Z,20.90
2019-05-25T10:34:48.448Z,21.98
2019-05-25T10:39:49.401Z,22.05
2019-05-25T10:44:53.295Z,22.93
2019-05-25T10:49:57.057Z,23.18
2019-05-25T10:54:53.394Z,23.53
2019-05-25T10:59:53.221Z,23.13
2019-05-25T11:05:02.465Z,22.78
2019-05-25T11:10:56.336Z,22.23
2019-05-25T11:15:43.770Z,21.80
2019-05-25T11:20:42.776Z,21.52
2019-05-25T11:25:51.592Z,21.84
2019-05-25T11:30:44.971Z,21.44
2019-05-25T11:35:41.067Z,21.56
2019-05-25T11:40:51.881Z,21.96
2019-05-25T11:45:59.747Z,21.04
2019-05-25T11:50:49.234Z,21.43
2019-05-25T11:55:45.436Z,21.64
2019-05-25T12:00:41.602Z,22.21
2019-05-25T12:05:40.611Z,22.43
2019-05-25T12:10:36.623Z,22.61
2019-05-25T12:16:31.287Z,22.51
2019-05-25T12:22:06.230Z,22.32
2019-05-25T12:27:50.697Z,21.51
2019-05-25T12:32:46.871Z,21.00
2019-05-25T12:38:16.709Z,20.72
2019-05-25T12:43:12.904Z,20.53
2019-05-25T12:48:09.142Z,19.92
2019-05-25T12:53:05.206Z,19.37
2019-05-25T12:58:01.368Z,19.24
2019-05-25T13:02:57.194Z,18.64
2019-05-25T13:07:53.197Z,18.55
2019-05-25T13:12:49.028Z,18.47
2019-05-25T13:17:44.823Z,18.35
2019-05-25T13:22:40.581Z,17.90
2019-05-25T13:27:36.427Z,16.81
2019-05-25T13:32:32.322Z,15.91
2019-05-25T13:37:31.246Z,15.87
2019-05-25T13:42:27.317Z,15.92
2019-05-25T13:47:23.217Z,15.66
2019-05-25T13:52:19.073Z,15.82
2019-05-25T13:57:17.471Z,16.13
2019-05-25T14:02:13.288Z,16.33
2019-05-25T14:07:09.198Z,16.42
2019-05-25T14:12:05.075Z,16.49
2019-05-25T14:17:01.837Z,16.72
2019-05-25T14:21:57.661Z,17.02
2019-05-25T14:26:53.501Z,17.35
2019-05-25T14:31:49.324Z,17.44
2019-05-25T14:36:45.136Z,17.28
2019-05-25T14:42:35.588Z,17.24
2019-05-25T14:48:34.330Z,17.02
2019-05-25T14:54:32.380Z,16.85
2019-05-25T15:05:33.503Z,16.81
2019-05-25T15:22:30.490Z,16.63
2019-05-25T15:28:32.013Z,16.72
2019-05-25T15:33:28.278Z,16.30
2019-05-25T15:38:24.342Z,16.22
2019-05-25T15:43:20.151Z,16.33
2019-05-25T15:48:16.784Z,16.41
2019-05-25T15:53:12.903Z,16.59
2019-05-25T15:58:09.515Z,16.54
2019-05-25T16:03:05.973Z,16.54
2019-05-25T16:08:03.777Z,16.82
2019-05-25T16:13:00.133Z,16.84
2019-05-25T16:18:01.564Z,16.78
2019-05-25T16:22:59.545Z,17.06
2019-05-25T16:27:55.748Z,17.23
2019-05-25T16:37:49.835Z,17.36
2019-05-25T16:42:48.680Z,17.17
2019-05-25T16:47:44.799Z,17.43
2019-05-25T16:52:41.165Z,17.68
2019-05-25T16:57:39.775Z,17.24
2019-05-25T17:02:36.024Z,17.02
2019-05-25T17:07:31.979Z,16.84
2019-05-25T17:12:28.099Z,16.85
2019-05-25T17:17:23.850Z,16.74
2019-05-25T17:22:22.037Z,16.70
2019-05-25T17:27:17.952Z,16.69
2019-05-25T17:32:17.718Z,16.80
2019-05-25T17:37:18.498Z,16.77
2019-05-25T17:42:14.287Z,16.69
2019-05-25T17:47:18.960Z,16.38
2019-05-25T17:52:15.061Z,16.04
2019-05-25T17:57:11.035Z,16.18
2019-05-25T18:02:07.848Z,16.04
2019-05-25T18:07:06.169Z,15.96
2019-05-25T18:12:09.231Z,15.98
2019-05-25T18:17:10.190Z,15.88
2019-05-25T18:22:26.661Z,15.79
2019-05-25T18:30:30.933Z,15.81
2019-05-25T18:33:28.563Z,15.76
2019-05-25T18:44:12.313Z,15.68
2019-05-25T18:49:43.325Z,15.66
2019-05-25T19:00:41.446Z,15.76
2019-05-25T19:06:36.397Z,15.71
2019-05-25T19:12:31.864Z,15.70
2019-05-25T19:47:21.171Z,14.77
2019-05-25T19:52:18.007Z,14.61
2019-05-25T19:57:13.757Z,14.50
2019-05-25T20:02:09.865Z,14.78
2019-05-25T20:07:05.778Z,14.89
2019-05-25T20:12:01.818Z,14.98
2019-05-25T20:16:57.626Z,15.01
2019-05-25T20:21:53.725Z,14.79
2019-05-25T20:26:49.547Z,14.55
2019-05-25T20:31:45.579Z,14.57
2019-05-25T20:36:41.462Z,14.63
2019-05-25T20:41:37.216Z,14.47
2019-05-25T20:46:33.859Z,14.33
2019-05-25T20:51:29.757Z,14.25
2019-05-25T20:56:25.766Z,14.33
2019-05-25T21:01:21.573Z,14.42
2019-05-25T21:06:17.334Z,14.41
2019-05-25T21:11:13.266Z,14.39
2019-05-25T21:16:09.150Z,14.06
2019-05-25T21:21:04.902Z,14.01
2019-05-25T21:26:04.028Z,14.12
2019-05-25T21:30:59.767Z,14.19
2019-05-25T21:36:07.533Z,14.19
2019-05-25T21:40:54.077Z,14.21
2019-05-25T21:45:51.579Z,14.21
2019-05-25T21:50:51.464Z,14.22
2019-05-25T21:55:47.244Z,14.06
2019-05-25T22:00:46.338Z,13.87
2019-05-25T22:05:47.653Z,13.67
2019-05-25T22:10:43.491Z,13.72
2019-05-25T22:15:39.410Z,13.55
2019-05-25T22:20:35.236Z,13.53
2019-05-25T22:25:30.991Z,13.53
2019-05-25T22:30:26.807Z,13.59
2019-05-25T22:35:22.651Z,13.30
2019-05-25T22:40:19.142Z,13.07
2019-05-25T22:45:15.171Z,12.95
2019-05-25T22:50:11.289Z,12.92
2019-05-25T22:55:10.748Z,12.90
2019-05-25T23:00:09.228Z,12.81
2019-05-25T23:05:07.252Z,12.95
2019-05-25T23:10:02.961Z,13.13
2019-05-25T23:14:58.729Z,13.21
2019-05-25T23:19:54.657Z,13.27
2019-05-25T23:24:50.491Z,13.40
2019-05-25T23:29:46.156Z,13.47
2019-05-25T23:34:42.523Z,13.02
2019-05-25T23:39:38.307Z,12.96
2019-05-25T23:44:34.066Z,13.13
2019-05-25T23:49:32.276Z,12.94
2019-05-25T23:54:28.424Z,13.14
2019-05-25T23:59:24.343Z,13.31
